sensor_id;sensor_type;location;lat;lon;timestamp;pressure;altitude;pressure_sealevel;temperature;humidity
73633;BME280;61927;50.080;14.418;2023-05-12T00:00:58;99318.72;;;15.01;50.77
73633;BME280;61927;50.080;14.418;2023-05-12T00:03:24;99323.94;;;15.02;50.44
73633;BME280;61927;50.080;14.418;2023-05-12T00:05:50;99325.66;;;15.03;50.25
73633;BME280;61927;50.080;14.418;2023-05-12T00:08:15;99322.34;;;15.11;49.74
73633;BME280;61927;50.080;14.418;2023-05-12T00:10:41;99323.91;;;15.13;50.01
73633;BME280;61927;50.080;14.418;2023-05-12T00:13:07;99329.13;;;15.15;49.81
73633;BME280;61927;50.080;14.418;2023-05-12T00:15:35;99326.72;;;15.12;49.97
73633;BME280;61927;50.080;14.418;2023-05-12T00:18:01;99323.44;;;15.08;50.05
73633;BME280;61927;50.080;14.418;2023-05-12T00:20:27;99322.34;;;15.11;49.92
73633;BME280;61927;50.080;14.418;2023-05-12T00:22:53;99321.63;;;15.09;50.57
73633;BME280;61927;50.080;14.418;2023-05-12T00:25:18;99323.44;;;15.08;50.26
73633;BME280;61927;50.080;14.418;2023-05-12T00:27:44;99315.56;;;15.07;50.54
73633;BME280;61927;50.080;14.418;2023-05-12T00:30:10;99316.66;;;15.04;50.75
73633;BME280;61927;50.080;14.418;2023-05-12T00:32:36;99319.66;;;15.11;50.79
73633;BME280;61927;50.080;14.418;2023-05-12T00:35:01;99318.81;;;15.10;50.70
73633;BME280;61927;50.080;14.418;2023-05-12T00:37:27;99319.19;;;15.06;50.67
73633;BME280;61927;50.080;14.418;2023-05-12T00:39:53;99313.38;;;15.01;50.97
73633;BME280;61927;50.080;14.418;2023-05-12T00:42:19;99311.47;;;14.92;51.11
73633;BME280;61927;50.080;14.418;2023-05-12T00:44:44;99319.38;;;14.82;51.03
73633;BME280;61927;50.080;14.418;2023-05-12T00:47:10;99320.47;;;14.79;50.72
73633;BME280;61927;50.080;14.418;2023-05-12T00:49:37;99316.97;;;14.79;50.31
73633;BME280;61927;50.080;14.418;2023-05-12T00:52:07;99320.59;;;14.78;49.71
73633;BME280;61927;50.080;14.418;2023-05-12T00:54:34;99321.44;;;14.78;50.57
73633;BME280;61927;50.080;14.418;2023-05-12T00:57:00;99318.31;;;14.73;50.24
73633;BME280;61927;50.080;14.418;2023-05-12T00:59:26;99317.59;;;14.71;50.23
73633;BME280;61927;50.080;14.418;2023-05-12T01:01:54;99321.94;;;14.72;50.44
73633;BME280;61927;50.080;14.418;2023-05-12T01:04:20;99320.50;;;14.68;50.57
73633;BME280;61927;50.080;14.418;2023-05-12T01:09:30;99331.06;;;14.70;50.84
73633;BME280;61927;50.080;14.418;2023-05-12T01:11:56;99321.00;;;14.62;50.67
73633;BME280;61927;50.080;14.418;2023-05-12T01:14:22;99321.25;;;14.59;51.08
73633;BME280;61927;50.080;14.418;2023-05-12T01:16:52;99318.22;;;14.52;50.81
73633;BME280;61927;50.080;14.418;2023-05-12T01:19:30;99323.06;;;14.47;51.49
73633;BME280;61927;50.080;14.418;2023-05-12T01:21:58;99333.16;;;14.44;53.24
73633;BME280;61927;50.080;14.418;2023-05-12T01:24:26;99330.31;;;14.34;53.97
73633;BME280;61927;50.080;14.418;2023-05-12T01:26:53;99323.66;;;14.29;55.45
73633;BME280;61927;50.080;14.418;2023-05-12T01:29:20;99334.31;;;14.17;55.74
73633;BME280;61927;50.080;14.418;2023-05-12T01:31:47;99337.22;;;14.14;55.98
73633;BME280;61927;50.080;14.418;2023-05-12T01:34:17;99333.72;;;14.14;56.21
73633;BME280;61927;50.080;14.418;2023-05-12T01:36:45;99334.19;;;14.08;55.63
73633;BME280;61927;50.080;14.418;2023-05-12T01:39:11;99342.31;;;13.95;55.79
73633;BME280;61927;50.080;14.418;2023-05-12T01:41:37;99341.19;;;13.86;57.31
73633;BME280;61927;50.080;14.418;2023-05-12T01:44:03;99343.72;;;13.77;57.73
73633;BME280;61927;50.080;14.418;2023-05-12T01:46:28;99349.53;;;13.71;58.12
73633;BME280;61927;50.080;14.418;2023-05-12T01:48:54;99349.03;;;13.66;57.40
73633;BME280;61927;50.080;14.418;2023-05-12T01:51:20;99344.88;;;13.62;57.10
73633;BME280;61927;50.080;14.418;2023-05-12T01:53:45;99350.34;;;13.60;57.04
73633;BME280;61927;50.080;14.418;2023-05-12T01:56:11;99352.63;;;13.53;57.10
73633;BME280;61927;50.080;14.418;2023-05-12T01:58:36;99350.53;;;13.46;57.31
73633;BME280;61927;50.080;14.418;2023-05-12T02:01:02;99360.47;;;13.44;57.56
73633;BME280;61927;50.080;14.418;2023-05-12T02:03:28;99367.09;;;13.38;58.06
73633;BME280;61927;50.080;14.418;2023-05-12T02:05:53;99358.47;;;13.35;58.31
73633;BME280;61927;50.080;14.418;2023-05-12T02:08:19;99368.00;;;13.26;58.45
73633;BME280;61927;50.080;14.418;2023-05-12T02:10:45;99369.31;;;13.20;58.69
73633;BME280;61927;50.080;14.418;2023-05-12T02:13:11;99364.63;;;13.11;58.81
73633;BME280;61927;50.080;14.418;2023-05-12T02:15:36;99375.72;;;13.05;59.10
73633;BME280;61927;50.080;14.418;2023-05-12T02:18:02;99375.00;;;13.03;59.20
73633;BME280;61927;50.080;14.418;2023-05-12T02:20:28;99379.75;;;13.11;59.39
73633;BME280;61927;50.080;14.418;2023-05-12T02:22:54;99377.53;;;13.05;59.03
73633;BME280;61927;50.080;14.418;2023-05-12T02:25:20;99382.13;;;13.03;59.83
73633;BME280;61927;50.080;14.418;2023-05-12T02:27:46;99379.69;;;13.00;59.61
73633;BME280;61927;50.080;14.418;2023-05-12T02:30:12;99380.16;;;12.93;60.00
73633;BME280;61927;50.080;14.418;2023-05-12T02:32:38;99383.47;;;12.84;60.40
73633;BME280;61927;50.080;14.418;2023-05-12T02:35:04;99376.66;;;12.80;60.41
73633;BME280;61927;50.080;14.418;2023-05-12T02:37:29;99383.28;;;12.75;60.28
73633;BME280;61927;50.080;14.418;2023-05-12T02:39:55;99379.78;;;12.74;60.49
73633;BME280;61927;50.080;14.418;2023-05-12T02:42:20;99381.81;;;12.71;59.96
73633;BME280;61927;50.080;14.418;2023-05-12T02:44:46;99385.22;;;12.60;60.63
73633;BME280;61927;50.080;14.418;2023-05-12T02:47:12;99387.38;;;12.55;60.30
73633;BME280;61927;50.080;14.418;2023-05-12T02:49:37;99390.56;;;12.47;60.55
73633;BME280;61927;50.080;14.418;2023-05-12T02:52:03;99391.22;;;12.38;60.95
73633;BME280;61927;50.080;14.418;2023-05-12T02:54:29;99388.97;;;12.32;61.24
73633;BME280;61927;50.080;14.418;2023-05-12T02:56:55;99384.94;;;12.26;61.66
73633;BME280;61927;50.080;14.418;2023-05-12T02:59:22;99385.25;;;12.22;61.80
73633;BME280;61927;50.080;14.418;2023-05-12T03:01:48;99390.69;;;12.20;62.15
73633;BME280;61927;50.080;14.418;2023-05-12T03:04:13;99397.50;;;12.24;62.41
73633;BME280;61927;50.080;14.418;2023-05-12T03:06:39;99388.47;;;12.27;62.34
73633;BME280;61927;50.080;14.418;2023-05-12T03:09:05;99386.00;;;12.24;62.66
73633;BME280;61927;50.080;14.418;2023-05-12T03:11:30;99384.94;;;12.26;62.61
73633;BME280;61927;50.080;14.418;2023-05-12T03:13:56;99375.25;;;12.25;62.77
73633;BME280;61927;50.080;14.418;2023-05-12T03:16:22;99379.84;;;12.23;62.63
73633;BME280;61927;50.080;14.418;2023-05-12T03:18:47;99383.34;;;12.24;62.69
73633;BME280;61927;50.080;14.418;2023-05-12T03:21:13;99386.44;;;12.18;62.79
73633;BME280;61927;50.080;14.418;2023-05-12T03:23:39;99391.75;;;12.18;62.91
73633;BME280;61927;50.080;14.418;2023-05-12T03:26:04;99389.41;;;12.13;62.90
73633;BME280;61927;50.080;14.418;2023-05-12T03:28:30;99391.31;;;12.11;62.81
73633;BME280;61927;50.080;14.418;2023-05-12T03:30:56;99387.72;;;12.12;62.87
73633;BME280;61927;50.080;14.418;2023-05-12T03:33:22;99393.13;;;12.11;62.96
73633;BME280;61927;50.080;14.418;2023-05-12T03:35:47;99392.50;;;12.07;62.94
73633;BME280;61927;50.080;14.418;2023-05-12T03:38:13;99388.88;;;12.08;63.23
73633;BME280;61927;50.080;14.418;2023-05-12T03:40:39;99389.53;;;12.12;63.10
73633;BME280;61927;50.080;14.418;2023-05-12T03:43:04;99394.94;;;12.10;63.33
73633;BME280;61927;50.080;14.418;2023-05-12T03:45:30;99396.84;;;12.08;63.28
73633;BME280;61927;50.080;14.418;2023-05-12T03:47:55;99400.91;;;12.01;63.37
73633;BME280;61927;50.080;14.418;2023-05-12T03:50:21;99406.63;;;11.95;63.71
73633;BME280;61927;50.080;14.418;2023-05-12T03:52:47;99401.53;;;11.92;63.99
73633;BME280;61927;50.080;14.418;2023-05-12T03:55:12;99408.66;;;11.91;63.60
73633;BME280;61927;50.080;14.418;2023-05-12T03:57:38;99408.75;;;11.90;63.81
73633;BME280;61927;50.080;14.418;2023-05-12T04:00:04;99407.78;;;11.91;63.63
73633;BME280;61927;50.080;14.418;2023-05-12T04:02:30;99409.41;;;11.93;63.60
73633;BME280;61927;50.080;14.418;2023-05-12T04:04:56;99407.06;;;11.89;63.33
73633;BME280;61927;50.080;14.418;2023-05-12T04:07:21;99403.34;;;11.91;63.58
73633;BME280;61927;50.080;14.418;2023-05-12T04:09:47;99408.34;;;11.96;63.35
73633;BME280;61927;50.080;14.418;2023-05-12T04:12:12;99404.41;;;12.02;63.06
73633;BME280;61927;50.080;14.418;2023-05-12T04:14:38;99408.97;;;12.00;63.16
73633;BME280;61927;50.080;14.418;2023-05-12T04:17:04;99419.81;;;11.96;62.89
73633;BME280;61927;50.080;14.418;2023-05-12T04:19:30;99418.25;;;12.07;62.80
73633;BME280;61927;50.080;14.418;2023-05-12T04:21:55;99420.78;;;12.08;62.70
73633;BME280;61927;50.080;14.418;2023-05-12T04:24:21;99421.00;;;12.05;63.06
73633;BME280;61927;50.080;14.418;2023-05-12T04:26:49;99428.22;;;12.03;62.42
73633;BME280;61927;50.080;14.418;2023-05-12T04:29:14;99430.69;;;12.06;63.45
73633;BME280;61927;50.080;14.418;2023-05-12T04:31:40;99439.63;;;12.05;62.56
73633;BME280;61927;50.080;14.418;2023-05-12T04:34:06;99433.34;;;12.06;62.62
73633;BME280;61927;50.080;14.418;2023-05-12T04:36:31;99435.91;;;12.08;62.70
73633;BME280;61927;50.080;14.418;2023-05-12T04:38:58;99439.31;;;12.10;62.77
73633;BME280;61927;50.080;14.418;2023-05-12T04:41:23;99443.47;;;12.14;62.56
73633;BME280;61927;50.080;14.418;2023-05-12T04:43:49;99438.88;;;12.16;62.55
73633;BME280;61927;50.080;14.418;2023-05-12T04:46:15;99442.72;;;12.24;62.38
73633;BME280;61927;50.080;14.418;2023-05-12T04:48:41;99440.28;;;12.34;62.19
73633;BME280;61927;50.080;14.418;2023-05-12T04:51:07;99439.13;;;12.38;61.81
73633;BME280;61927;50.080;14.418;2023-05-12T04:53:33;99436.13;;;12.43;61.68
73633;BME280;61927;50.080;14.418;2023-05-12T04:56:00;99440.28;;;12.47;61.81
73633;BME280;61927;50.080;14.418;2023-05-12T04:58:26;99443.59;;;12.50;61.49
73633;BME280;61927;50.080;14.418;2023-05-12T05:00:52;99446.88;;;12.54;61.59
73633;BME280;61927;50.080;14.418;2023-05-12T05:03:18;99443.25;;;12.68;61.18
73633;BME280;61927;50.080;14.418;2023-05-12T05:05:43;99443.03;;;12.71;61.00
73633;BME280;61927;50.080;14.418;2023-05-12T05:08:09;99439.41;;;12.72;60.70
73633;BME280;61927;50.080;14.418;2023-05-12T05:10:35;99447.28;;;12.73;60.43
73633;BME280;61927;50.080;14.418;2023-05-12T05:13:01;99450.69;;;12.75;60.55
73633;BME280;61927;50.080;14.418;2023-05-12T05:15:26;99451.00;;;12.83;60.45
73633;BME280;61927;50.080;14.418;2023-05-12T05:17:52;99452.28;;;12.90;60.42
73633;BME280;61927;50.080;14.418;2023-05-12T05:20:18;99447.56;;;12.94;59.95
73633;BME280;61927;50.080;14.418;2023-05-12T05:22:43;99443.00;;;12.96;59.95
73633;BME280;61927;50.080;14.418;2023-05-12T05:25:09;99450.44;;;13.04;59.55
73633;BME280;61927;50.080;14.418;2023-05-12T05:27:35;99449.34;;;13.06;59.27
73633;BME280;61927;50.080;14.418;2023-05-12T05:30:04;99441.16;;;13.09;58.69
73633;BME280;61927;50.080;14.418;2023-05-12T05:32:30;99447.75;;;13.16;58.51
73633;BME280;61927;50.080;14.418;2023-05-12T05:34:55;99441.38;;;13.19;58.08
73633;BME280;61927;50.080;14.418;2023-05-12T05:37:21;99441.88;;;13.24;57.88
73633;BME280;61927;50.080;14.418;2023-05-12T05:39:47;99440.56;;;13.30;57.72
73633;BME280;61927;50.080;14.418;2023-05-12T05:42:12;99441.59;;;13.40;57.18
73633;BME280;61927;50.080;14.418;2023-05-12T05:44:38;99442.75;;;13.48;56.92
73633;BME280;61927;50.080;14.418;2023-05-12T05:47:04;99442.53;;;13.51;56.73
73633;BME280;61927;50.080;14.418;2023-05-12T05:49:29;99451.03;;;13.56;56.42
73633;BME280;61927;50.080;14.418;2023-05-12T05:51:55;99445.97;;;13.65;56.41
73633;BME280;61927;50.080;14.418;2023-05-12T05:54:24;99457.78;;;13.73;55.86
73633;BME280;61927;50.080;14.418;2023-05-12T05:56:50;99453.06;;;13.77;55.70
73633;BME280;61927;50.080;14.418;2023-05-12T05:59:15;99462.19;;;13.85;55.52
73633;BME280;61927;50.080;14.418;2023-05-12T06:01:41;99465.00;;;13.95;55.03
73633;BME280;61927;50.080;14.418;2023-05-12T06:04:07;99466.25;;;14.02;55.83
73633;BME280;61927;50.080;14.418;2023-05-12T06:06:33;99468.22;;;14.11;55.71
73633;BME280;61927;50.080;14.418;2023-05-12T06:08:58;99471.66;;;14.25;55.56
73633;BME280;61927;50.080;14.418;2023-05-12T06:11:24;99467.19;;;14.36;55.73
73633;BME280;61927;50.080;14.418;2023-05-12T06:13:49;99476.00;;;14.49;55.11
73633;BME280;61927;50.080;14.418;2023-05-12T06:16:15;99469.81;;;14.60;55.45
73633;BME280;61927;50.080;14.418;2023-05-12T06:18:40;99481.00;;;14.76;54.78
73633;BME280;61927;50.080;14.418;2023-05-12T06:21:06;99477.59;;;14.85;54.89
73633;BME280;61927;50.080;14.418;2023-05-12T06:23:32;99483.06;;;14.84;54.93
73633;BME280;61927;50.080;14.418;2023-05-12T06:25:58;99481.97;;;14.86;54.74
73633;BME280;61927;50.080;14.418;2023-05-12T06:28:23;99482.81;;;14.87;55.02
73633;BME280;61927;50.080;14.418;2023-05-12T06:30:49;99476.25;;;14.91;54.54
73633;BME280;61927;50.080;14.418;2023-05-12T06:33:15;99484.53;;;14.88;54.96
73633;BME280;61927;50.080;14.418;2023-05-12T06:35:40;99476.25;;;14.91;54.91
73633;BME280;61927;50.080;14.418;2023-05-12T06:38:06;99483.19;;;14.94;55.07
73633;BME280;61927;50.080;14.418;2023-05-12T06:40:32;99494.00;;;14.92;55.05
73633;BME280;61927;50.080;14.418;2023-05-12T06:42:57;99491.19;;;14.94;55.11
73633;BME280;61927;50.080;14.418;2023-05-12T06:45:23;99485.13;;;15.03;54.67
73633;BME280;61927;50.080;14.418;2023-05-12T06:47:49;99484.88;;;15.06;54.76
73633;BME280;61927;50.080;14.418;2023-05-12T06:50:15;99483.53;;;15.11;54.80
73633;BME280;61927;50.080;14.418;2023-05-12T06:52:42;99485.72;;;15.17;54.52
73633;BME280;61927;50.080;14.418;2023-05-12T06:55:08;99477.72;;;15.17;54.24
73633;BME280;61927;50.080;14.418;2023-05-12T06:57:34;99491.19;;;15.16;54.66
73633;BME280;61927;50.080;14.418;2023-05-12T06:59:59;99491.06;;;15.17;54.76
73633;BME280;61927;50.080;14.418;2023-05-12T07:02:28;99488.88;;;15.23;54.73
73633;BME280;61927;50.080;14.418;2023-05-12T07:04:53;99487.28;;;15.31;53.89
73633;BME280;61927;50.080;14.418;2023-05-12T07:07:19;99492.25;;;15.36;53.51
73633;BME280;61927;50.080;14.418;2023-05-12T07:09:45;99489.34;;;15.39;53.43
73633;BME280;61927;50.080;14.418;2023-05-12T07:12:10;99487.28;;;15.42;53.23
73633;BME280;61927;50.080;14.418;2023-05-12T07:14:36;99482.78;;;15.43;53.49
73633;BME280;61927;50.080;14.418;2023-05-12T07:17:02;99493.81;;;15.49;53.31
73633;BME280;61927;50.080;14.418;2023-05-12T07:19:29;99491.63;;;15.55;53.26
73633;BME280;61927;50.080;14.418;2023-05-12T07:21:54;99486.16;;;15.56;53.09
73633;BME280;61927;50.080;14.418;2023-05-12T07:24:20;99478.97;;;15.57;53.12
73633;BME280;61927;50.080;14.418;2023-05-12T07:26:45;99484.94;;;15.60;53.06
73633;BME280;61927;50.080;14.418;2023-05-12T07:29:11;99483.34;;;15.69;52.70
73633;BME280;61927;50.080;14.418;2023-05-12T07:31:38;99491.00;;;15.73;52.25
73633;BME280;61927;50.080;14.418;2023-05-12T07:34:04;99485.50;;;15.75;52.29
73633;BME280;61927;50.080;14.418;2023-05-12T07:36:29;99488.66;;;15.80;52.50
73633;BME280;61927;50.080;14.418;2023-05-12T07:38:55;99494.47;;;15.85;51.64
73633;BME280;61927;50.080;14.418;2023-05-12T07:41:21;99489.25;;;15.83;52.01
73633;BME280;61927;50.080;14.418;2023-05-12T07:43:49;99487.91;;;15.89;52.14
73633;BME280;61927;50.080;14.418;2023-05-12T07:46:14;99492.16;;;15.92;51.87
73633;BME280;61927;50.080;14.418;2023-05-12T07:48:40;99496.66;;;15.91;51.89
73633;BME280;61927;50.080;14.418;2023-05-12T07:51:06;99498.34;;;15.92;52.14
73633;BME280;61927;50.080;14.418;2023-05-12T07:53:32;99496.25;;;15.96;52.03
73633;BME280;61927;50.080;14.418;2023-05-12T07:55:58;99495.75;;;16.02;51.10
73633;BME280;61927;50.080;14.418;2023-05-12T07:58:24;99503.00;;;16.11;51.17
73633;BME280;61927;50.080;14.418;2023-05-12T08:00:49;99499.34;;;16.12;50.94
73633;BME280;61927;50.080;14.418;2023-05-12T08:03:15;99498.84;;;16.18;50.70
73633;BME280;61927;50.080;14.418;2023-05-12T08:05:41;99504.53;;;16.25;50.56
73633;BME280;61927;50.080;14.418;2023-05-12T08:08:07;99496.25;;;16.28;50.76
73633;BME280;61927;50.080;14.418;2023-05-12T08:10:40;99493.09;;;16.23;50.59
73633;BME280;61927;50.080;14.418;2023-05-12T08:13:06;99496.25;;;16.28;51.22
73633;BME280;61927;50.080;14.418;2023-05-12T08:15:31;99493.38;;;16.40;50.15
73633;BME280;61927;50.080;14.418;2023-05-12T08:17:58;99497.22;;;16.47;49.95
73633;BME280;61927;50.080;14.418;2023-05-12T08:20:24;99488.59;;;16.44;49.62
73633;BME280;61927;50.080;14.418;2023-05-12T08:22:49;99493.75;;;16.57;49.35
73633;BME280;61927;50.080;14.418;2023-05-12T08:25:15;99500.41;;;16.62;49.38
73633;BME280;61927;50.080;14.418;2023-05-12T08:27:41;99503.63;;;16.77;48.58
73633;BME280;61927;50.080;14.418;2023-05-12T08:30:07;99499.84;;;16.79;48.44
73633;BME280;61927;50.080;14.418;2023-05-12T08:32:34;99503.16;;;16.93;47.48
73633;BME280;61927;50.080;14.418;2023-05-12T08:35:00;99502.09;;;17.05;47.50
73633;BME280;61927;50.080;14.418;2023-05-12T08:37:26;99495.03;;;17.04;47.10
73633;BME280;61927;50.080;14.418;2023-05-12T08:39:52;99503.38;;;17.10;47.43
73633;BME280;61927;50.080;14.418;2023-05-12T08:42:41;99493.41;;;17.22;47.57
73633;BME280;61927;50.080;14.418;2023-05-12T08:45:09;99508.72;;;17.41;47.18
73633;BME280;61927;50.080;14.418;2023-05-12T08:47:36;99492.63;;;17.51;46.06
73633;BME280;61927;50.080;14.418;2023-05-12T08:50:03;99497.72;;;17.54;45.72
73633;BME280;61927;50.080;14.418;2023-05-12T08:52:31;99487.00;;;17.54;45.36
73633;BME280;61927;50.080;14.418;2023-05-12T08:54:58;99500.53;;;17.52;46.00
73633;BME280;61927;50.080;14.418;2023-05-12T08:57:25;99495.19;;;17.62;44.33
73633;BME280;61927;50.080;14.418;2023-05-12T08:59:55;99504.59;;;17.77;44.05
73633;BME280;61927;50.080;14.418;2023-05-12T09:02:22;99505.72;;;17.94;43.33
73633;BME280;61927;50.080;14.418;2023-05-12T09:04:50;99504.19;;;18.11;41.95
73633;BME280;61927;50.080;14.418;2023-05-12T09:07:17;99501.06;;;18.15;40.89
73633;BME280;61927;50.080;14.418;2023-05-12T09:09:44;99503.06;;;18.13;40.59
73633;BME280;61927;50.080;14.418;2023-05-12T09:12:14;99505.03;;;18.01;41.69
73633;BME280;61927;50.080;14.418;2023-05-12T09:14:44;99497.25;;;17.98;40.94
73633;BME280;61927;50.080;14.418;2023-05-12T09:17:11;99493.44;;;17.91;41.59
73633;BME280;61927;50.080;14.418;2023-05-12T09:19:37;99500.06;;;17.87;41.52
73633;BME280;61927;50.080;14.418;2023-05-12T09:22:03;99505.28;;;17.79;41.68
73633;BME280;61927;50.080;14.418;2023-05-12T09:24:38;99496.94;;;17.72;42.46
73633;BME280;61927;50.080;14.418;2023-05-12T09:27:04;99492.84;;;17.68;43.17
73633;BME280;61927;50.080;14.418;2023-05-12T09:29:31;99502.72;;;17.68;43.37
73633;BME280;61927;50.080;14.418;2023-05-12T09:35:42;99513.56;;;17.57;42.76
73633;BME280;61927;50.080;14.418;2023-05-12T09:38:10;99501.84;;;17.58;42.53
73633;BME280;61927;50.080;14.418;2023-05-12T09:40:36;99504.81;;;17.64;42.53
73633;BME280;61927;50.080;14.418;2023-05-12T09:43:04;99511.34;;;17.71;41.94
73633;BME280;61927;50.080;14.418;2023-05-12T09:45:33;99509.81;;;17.79;41.71
73633;BME280;61927;50.080;14.418;2023-05-12T09:48:06;99507.13;;;17.79;42.04
73633;BME280;61927;50.080;14.418;2023-05-12T09:50:33;99508.25;;;17.76;41.99
73633;BME280;61927;50.080;14.418;2023-05-12T09:52:59;99500.34;;;17.74;41.84
73633;BME280;61927;50.080;14.418;2023-05-12T09:55:25;99501.06;;;17.77;42.03
73633;BME280;61927;50.080;14.418;2023-05-12T09:57:53;99505.00;;;17.82;41.57
73633;BME280;61927;50.080;14.418;2023-05-12T10:00:20;99498.22;;;17.78;41.52
73633;BME280;61927;50.080;14.418;2023-05-12T10:02:47;99504.59;;;17.77;41.25
73633;BME280;61927;50.080;14.418;2023-05-12T10:05:15;99504.59;;;17.77;41.60
73633;BME280;61927;50.080;14.418;2023-05-12T10:07:43;99497.25;;;17.79;41.95
73633;BME280;61927;50.080;14.418;2023-05-12T10:10:13;99505.72;;;17.84;41.45
73633;BME280;61927;50.080;14.418;2023-05-12T10:12:42;99498.38;;;17.77;41.74
73633;BME280;61927;50.080;14.418;2023-05-12T10:15:09;99496.38;;;17.69;41.59
73633;BME280;61927;50.080;14.418;2023-05-12T10:17:36;99489.31;;;17.68;41.58
73633;BME280;61927;50.080;14.418;2023-05-12T10:20:02;99488.31;;;17.69;42.73
73633;BME280;61927;50.080;14.418;2023-05-12T10:22:33;99484.81;;;17.88;42.32
73633;BME280;61927;50.080;14.418;2023-05-12T10:25:00;99479.44;;;17.97;41.64
73633;BME280;61927;50.080;14.418;2023-05-12T10:27:28;99477.47;;;18.09;41.67
73633;BME280;61927;50.080;14.418;2023-05-12T10:29:55;99481.41;;;18.24;41.13
73633;BME280;61927;50.080;14.418;2023-05-12T10:32:21;99476.47;;;18.29;40.12
73633;BME280;61927;50.080;14.418;2023-05-12T10:34:47;99480.56;;;18.24;40.74
73633;BME280;61927;50.080;14.418;2023-05-12T10:37:13;99482.41;;;18.33;40.55
73633;BME280;61927;50.080;14.418;2023-05-12T10:39:49;99486.50;;;18.37;40.23
73633;BME280;61927;50.080;14.418;2023-05-12T10:42:19;99483.94;;;18.45;40.00
73633;BME280;61927;50.080;14.418;2023-05-12T10:44:53;99482.09;;;18.55;39.84
73633;BME280;61927;50.080;14.418;2023-05-12T10:47:24;99477.00;;;18.62;39.71
73633;BME280;61927;50.080;14.418;2023-05-12T10:49:55;99480.66;;;18.70;39.61
73633;BME280;61927;50.080;14.418;2023-05-12T10:52:23;99473.41;;;18.81;39.40
73633;BME280;61927;50.080;14.418;2023-05-12T10:54:48;99475.09;;;18.82;39.75
73633;BME280;61927;50.080;14.418;2023-05-12T10:57:18;99470.28;;;18.85;39.15
73633;BME280;61927;50.080;14.418;2023-05-12T10:59:48;99479.19;;;18.86;39.10
73633;BME280;61927;50.080;14.418;2023-05-12T11:02:17;99476.22;;;18.89;39.01
73633;BME280;61927;50.080;14.418;2023-05-12T11:04:51;99483.84;;;18.93;38.80
73633;BME280;61927;50.080;14.418;2023-05-12T11:07:29;99482.16;;;18.92;39.59
73633;BME280;61927;50.080;14.418;2023-05-12T11:09:58;99486.94;;;18.98;38.77
73633;BME280;61927;50.080;14.418;2023-05-12T11:12:26;99482.41;;;18.99;39.01
73633;BME280;61927;50.080;14.418;2023-05-12T11:14:52;99481.41;;;19.00;37.90
73633;BME280;61927;50.080;14.418;2023-05-12T11:17:18;99480.41;;;19.01;38.09
73633;BME280;61927;50.080;14.418;2023-05-12T11:19:45;99471.59;;;19.09;37.96
73633;BME280;61927;50.080;14.418;2023-05-12T11:22:20;99464.44;;;19.27;38.56
73633;BME280;61927;50.080;14.418;2023-05-12T11:24:46;99466.44;;;19.52;37.86
73633;BME280;61927;50.080;14.418;2023-05-12T11:27:18;99464.09;;;19.67;36.77
73633;BME280;61927;50.080;14.418;2023-05-12T11:29:53;99463.47;;;19.73;37.36
73633;BME280;61927;50.080;14.418;2023-05-12T11:32:19;99462.47;;;19.74;36.61
73633;BME280;61927;50.080;14.418;2023-05-12T11:34:45;99463.16;;;19.76;36.85
73633;BME280;61927;50.080;14.418;2023-05-12T11:37:12;99465.94;;;19.84;36.38
73633;BME280;61927;50.080;14.418;2023-05-12T11:39:38;99465.03;;;19.93;36.88
73633;BME280;61927;50.080;14.418;2023-05-12T11:42:30;99465.41;;;19.98;35.72
73633;BME280;61927;50.080;14.418;2023-05-12T11:44:57;99461.94;;;20.06;36.17
73633;BME280;61927;50.080;14.418;2023-05-12T11:47:24;99459.16;;;20.16;37.18
73633;BME280;61927;50.080;14.418;2023-05-12T11:49:56;99463.31;;;20.46;36.23
73633;BME280;61927;50.080;14.418;2023-05-12T11:52:29;99470.72;;;20.70;35.30
73633;BME280;61927;50.080;14.418;2023-05-12T11:54:59;99463.72;;;20.85;34.97
73633;BME280;61927;50.080;14.418;2023-05-12T11:57:30;99465.78;;;20.91;34.99
73633;BME280;61927;50.080;14.418;2023-05-12T11:59:57;99461.34;;;20.82;35.87
73633;BME280;61927;50.080;14.418;2023-05-12T12:02:25;99465.69;;;20.75;35.84
73633;BME280;61927;50.080;14.418;2023-05-12T12:04:54;99466.78;;;20.64;36.19
73633;BME280;61927;50.080;14.418;2023-05-12T12:07:34;99463.47;;;20.44;37.43
73633;BME280;61927;50.080;14.418;2023-05-12T12:10:18;99467.22;;;20.33;36.73
73633;BME280;61927;50.080;14.418;2023-05-12T12:12:44;99466.41;;;20.15;37.08
73633;BME280;61927;50.080;14.418;2023-05-12T12:15:11;99456.72;;;20.05;37.09
73633;BME280;61927;50.080;14.418;2023-05-12T12:17:38;99465.03;;;19.93;37.11
73633;BME280;61927;50.080;14.418;2023-05-12T12:20:04;99464.03;;;19.94;36.96
73633;BME280;61927;50.080;14.418;2023-05-12T12:22:30;99459.78;;;19.92;37.18
73633;BME280;61927;50.080;14.418;2023-05-12T12:25:00;99468.19;;;19.89;37.47
73633;BME280;61927;50.080;14.418;2023-05-12T12:27:26;99467.25;;;19.98;37.74
73633;BME280;61927;50.080;14.418;2023-05-12T12:29:51;99468.72;;;19.92;37.54
73633;BME280;61927;50.080;14.418;2023-05-12T12:32:17;99471.31;;;19.84;37.89
73633;BME280;61927;50.080;14.418;2023-05-12T12:34:42;99471.78;;;19.80;38.41
73633;BME280;61927;50.080;14.418;2023-05-12T12:37:10;99478.78;;;19.73;38.62
73633;BME280;61927;50.080;14.418;2023-05-12T12:39:36;99472.38;;;19.56;39.27
73633;BME280;61927;50.080;14.418;2023-05-12T12:42:02;99472.25;;;19.48;39.43
73633;BME280;61927;50.080;14.418;2023-05-12T12:44:28;99474.00;;;19.39;40.53
73633;BME280;61927;50.080;14.418;2023-05-12T12:46:54;99476.16;;;19.35;40.49
73633;BME280;61927;50.080;14.418;2023-05-12T12:49:20;99478.84;;;19.35;40.65
73633;BME280;61927;50.080;14.418;2023-05-12T12:51:46;99472.56;;;19.45;40.19
73633;BME280;61927;50.080;14.418;2023-05-12T12:54:12;99478.75;;;19.55;39.89